Altoona, Iowa
Current Conditions -  °F | °C
As of 10:55 PM on Thursday 30 Oct 2014 (Local Time) from KIKV Reporting Station
Overcast Overcast  
Wind Chill: 41°   Ceiling: 3100
Heat Index: 48°   Visibility: 10mi
Dew Point: 37°   Wind: 23mph
Humidity: 66%   Direction: 350°N
Pressure: 30.23"   Gusts: 37mph
Location:  41.64°N, 93.46°W
Report Text: KIKV 310355Z AUTO 35020G32KT 10SM OVC031 09/03 A3023 RMK AO2
Loading
Personal Weather Stations






























Interactive Weather Map
Tropical Storm Tracking
New forecast layout! Learn more

10-Day Weather Forecast

Advertisements
Track Severe Weather on mobile